joomla templates top joomla templates template joomla

King Air Abend

Notam

C3641/14 - CUSTOMS AVBL PPR, TEL 0049 9561 92098. 13 NOV 14:46 2014 UNTIL PERM. CREATED: 13 NOV 14:47 2014

Neue Wetteranzeige

Aktuelles Platzwetter 19.02.2017 18:38Z

AvgMinMax
Windrichtung240220260Deg
Windgeschwindigkeit7411kt
Sichtweite>10000m
Temperatur3°C
Taupunkt3°C
Feuchte100%
QNH1020.8hPa
QFE967.1hPa
WolkenBKN020 OVC027



2407 kt


Aerodrome Terminal Information Service (ATIS) Coburg

METAR
EDQC 191820Z AUTO 24005KT 9999 SCT018 BKN023 OVC029 03/03 Q1020=

METAR und TAF der Umgebung

[Quelle: ADDS]
METAR
EDDF 191820Z 19006KT 9999 BKN040 07/03 Q1021 NOSIG =
EDDN 191820Z 27005KT 9999 FEW028 BKN067 BKN120 05/02 Q1021 NOSIG =
EDDE 191820Z 23009KT 9999 BKN023 04/02 Q1019 NOSIG =
TAF
COR EDDF 191759Z 1918/2024 21006KT 9999 BKN025 PROB30 TEMPO 2006/2009 BKN014 BECMG 2009/2012 21012KT TEMPO 2013/2018 22015G25KT RA BKN012 TEMPO 2018/2024 23015G25KT BKN010 =
EDDN 191700Z 1918/2018 26010KT 9999 BKN025 BECMG 1918/1921 26005KT PROB40 TEMPO 1918/2008 4000 -RADZ BKN012 BECMG 2008/2010 24010KT TEMPO 2012/2016 24015G25KT BECMG 2015/2017 BKN012 TEMPO 2016/2018 24020G30KT RA BKN009 =
EDDE 191700Z 1918/2018 23010KT 9999 BKN030 PROB30 TEMPO 1920/2006 BKN013 BECMG 2006/2009 22015KT TEMPO 2009/2018 22020G30KT BECMG 2015/2018 BKN013 =
SR / SS: 06:19 / 16:43 UTC (EDQC 2017-02-19)

Windvorhersage

Verkehrslandeplatz Coburg Brandensteinsebene
Tower
Zur Brandensteinsebene
96450 Coburg

AeroClub Logo 200px

Aero Club Coburg e. V.
Postfach 11 09
96401 Coburg